Time;durP1;ratioP1;P1;durP2;ratioP2;P2;SDS_P1;SDS_P2;PMS_P1;PMS_P2;Temp;Humidity;BMP_temperature;BMP_pressure;BME280_temperature;BME280_humidity;BME280_pressure;Samples;Min_cycle;Max_cycle;Signal;HPM_P1;HPM_P2
2021/09/03 06:13:23;;;;;;;;;;;;;;;31.02;34.80;100858.49;1759341;81;20165;-91
2021/09/03 06:15:49;;;;;;;;;;;;;;;31.16;35.37;100862.70;1745842;81;20176;-89
2021/09/03 06:18:15;;;;;;;;;;;;;;;31.21;34.57;100854.58;1759443;81;21089;-93
2021/09/03 06:20:40;;;;;;;;;;;;;;;31.79;34.09;100849.84;1713989;83;20118;-92
2021/09/03 06:23:06;;;;;;;;;;;;;;;32.29;33.92;100853.98;1714351;83;20259;-93
2021/09/03 06:28:53;;;;;;;;;;;;;;;33.01;32.26;100854.55;1687603;83;20281;-91
2021/09/03 06:31:19;;;;;;;;;;;;;;;33.33;31.46;100853.56;1685650;85;21244;-89
2021/09/03 06:33:44;;;;;;;;;;;;;;;33.54;31.30;100860.41;1688342;84;20485;-92
2021/09/03 06:36:10;;;;;;;;;;;;;;;33.30;30.89;100869.72;1688031;85;20237;-94
2021/09/03 06:38:35;;;;;;;;;;;;;;;33.42;30.85;100865.86;1688311;85;20191;-91
2021/09/03 06:41:01;;;;;;;;;;;;;;;33.74;29.77;100871.02;1684379;85;20163;-92
2021/09/03 06:43:27;;;;;;;;;;;;;;;33.55;29.45;100869.59;1688602;85;21097;-91
2021/09/03 06:45:53;;;;;;;;;;;;;;;33.46;29.41;100865.83;1724952;82;20169;-92
2021/09/03 06:48:24;;;;;;;;;;;;;;;33.79;29.03;100870.58;1737615;82;20197;-90
2021/09/03 06:50:51;;;;;;;;;;;;;;;33.48;29.29;100873.20;1737427;81;20143;-91
2021/09/03 06:53:16;;;;;;;;;;;;;;;33.88;29.75;100887.06;1737782;81;20477;-88
2021/09/03 06:55:42;;;;;;;;;;;;;;;34.04;29.09;100882.98;1737669;81;21082;-92
2021/09/03 06:58:08;;;;;;;;;;;;;;;34.03;28.20;100884.98;1737519;81;20189;-90
2021/09/03 07:00:33;;;;;;;;;;;;;;;33.92;28.66;100884.26;1737562;81;20131;-90
2021/09/03 07:03:00;;;;;;;;;;;;;;;34.41;27.94;100889.78;1737648;81;20217;-93
2021/09/03 07:05:26;;;;;;;;;;;;;;;34.62;26.52;100883.17;1737389;82;20199;-91
2021/09/03 07:07:52;;;;;;;;;;;;;;;33.96;27.14;100888.41;1737779;81;21697;-89
2021/09/03 07:10:18;;;;;;;;;;;;;;;33.85;27.82;100882.30;1737671;81;20115;-90
2021/09/03 07:12:46;;;;;;;;;;;;;;;33.97;27.37;100884.40;1737774;81;20130;-90
2021/09/03 07:15:12;;;;;;;;;;;;;;;34.55;27.39;100882.66;1737852;82;20187;-92
2021/09/03 07:17:38;;;;;;;;;;;;;;;34.64;26.68;100881.54;1737397;81;20182;-92
2021/09/03 07:20:04;;;;;;;;;;;;;;;34.40;25.41;100882.61;1737615;82;21889;-94
2021/09/03 07:22:30;;;;;;;;;;;;;;;34.19;25.99;100886.43;1737656;81;20473;-90
2021/09/03 07:24:56;;;;;;;;;;;;;;;33.23;26.67;100892.92;1737586;82;20158;-89
2021/09/03 07:27:21;;;;;;;;;;;;;;;32.68;26.20;100891.58;1737736;81;20107;-93
2021/09/03 07:29:47;;;;;;;;;;;;;;;32.02;27.88;100899.05;1737676;81;20182;-91
2021/09/03 07:32:13;;;;;;;;;;;;;;;32.70;27.85;100897.53;1737543;82;21108;-94
2021/09/03 07:34:38;;;;;;;;;;;;;;;32.62;27.52;100899.35;1737527;82;20473;-91
2021/09/03 07:37:04;;;;;;;;;;;;;;;31.54;26.76;100905.59;1737553;82;20194;-91
2021/09/03 07:39:30;;;;;;;;;;;;;;;29.78;29.57;100915.72;1737578;81;20189;-91
2021/09/03 07:41:56;;;;;;;;;;;;;;;30.77;30.60;100900.93;1738107;81;20118;-90
2021/09/03 07:44:21;;;;;;;;;;;;;;;32.29;29.06;100903.59;1737679;81;21152;-88
2021/09/03 07:46:47;;;;;;;;;;;;;;;33.22;26.86;100901.12;1737541;81;20726;-86
2021/09/03 07:49:13;;;;;;;;;;;;;;;33.46;25.72;100898.75;1737371;82;20213;-88
2021/09/03 07:51:39;;;;;;;;;;;;;;;33.40;25.69;100903.80;1737710;81;20388;-87
2021/09/03 07:54:05;;;;;;;;;;;;;;;33.34;24.99;100906.22;1737594;81;20147;-88
2021/09/03 07:56:31;;;;;;;;;;;;;;;33.39;25.55;100908.59;1737610;82;21149;-87
2021/09/03 07:58:56;;;;;;;;;;;;;;;33.50;25.40;100902.91;1737638;82;20237;-90
2021/09/03 08:01:22;;;;;;;;;;;;;;;33.36;24.73;100898.23;1737488;82;20115;-89
2021/09/03 08:03:47;;;;;;;;;;;;;;;33.12;24.62;100901.95;1737485;81;20175;-89
2021/09/03 08:06:13;;;;;;;;;;;;;;;33.41;25.63;100906.77;1737667;81;20120;-88
2021/09/03 08:08:40;;;;;;;;;;;;;;;33.75;24.91;100895.78;1737618;82;21138;-88
2021/09/03 08:11:06;;;;;;;;;;;;;;;33.42;24.52;100900.00;1737725;81;20132;-88
2021/09/03 08:13:41;;;;;;;;;;;;;;;33.39;24.67;100888.24;1737592;81;20178;-88
2021/09/03 08:16:07;;;;;;;;;;;;;;;33.65;24.89;100889.08;1737425;82;20513;-88
2021/09/03 08:18:32;;;;;;;;;;;;;;;34.04;23.80;100882.38;1737510;81;20123;-88
2021/09/03 08:20:58;;;;;;;;;;;;;;;34.00;23.84;100889.95;1737638;82;21031;-88
2021/09/03 08:23:24;;;;;;;;;;;;;;;32.61;24.40;100891.58;1741271;81;20182;-89
2021/09/03 08:25:53;;;;;;;;;;;;;;;32.12;24.73;100890.47;1740219;82;20131;-89
2021/09/03 08:28:18;;;;;;;;;;;;;;;32.49;24.49;100893.42;1740056;82;20283;-90
2021/09/03 08:30:44;;;;;;;;;;;;;;;32.76;24.34;100893.11;1739926;82;20198;-88
2021/09/03 08:33:09;;;;;;;;;;;;;;;33.01;23.39;100876.89;1740138;82;20585;-89
2021/09/03 08:35:35;;;;;;;;;;;;;;;32.91;24.69;100884.08;1740065;81;20225;-91
2021/09/03 08:38:01;;;;;;;;;;;;;;;33.53;22.76;100889.55;1740123;81;20102;-90
2021/09/03 08:40:26;;;;;;;;;;;;;;;33.63;23.24;100890.08;1740148;82;20170;-89
2021/09/03 08:42:52;;;;;;;;;;;;;;;33.36;23.25;100883.48;1740164;81;20682;-89
2021/09/03 08:45:18;;;;;;;;;;;;;;;33.57;23.06;100883.95;1739969;82;21059;-88
2021/09/03 08:47:45;;;;;;;;;;;;;;;33.22;23.61;100885.75;1740056;82;20218;-88
2021/09/03 08:50:12;;;;;;;;;;;;;;;33.14;22.37;100878.61;1739838;81;20340;-91
2021/09/03 08:52:47;;;;;;;;;;;;;;;32.51;22.91;100887.64;1740072;82;20194;-88
2021/09/03 08:55:14;;;;;;;;;;;;;;;32.63;23.00;100889.80;1699770;83;20290;-89
2021/09/03 08:57:41;;;;;;;;;;;;;;;32.85;23.26;100880.72;1650281;86;21128;-86
2021/09/03 09:00:18;;;;;;;;;;;;;;;33.36;23.04;100876.49;1677247;84;20314;-90
2021/09/03 09:03:07;;;;;;;;;;;;;;;33.30;23.30;100876.12;1655913;86;20184;-87
2021/09/03 09:05:53;;;;;;;;;;;;;;;32.58;23.72;100882.62;1603195;87;20177;-88
2021/09/03 09:08:21;;;;;;;;;;;;;;;31.64;23.73;100887.47;1667676;86;20497;-91
2021/09/03 09:11:09;;;;;;;;;;;;;;;30.66;24.60;100888.16;1667985;86;21103;-89
2021/09/03 09:13:39;;;;;;;;;;;;;;;30.92;25.18;100892.08;1667972;86;20298;-87
2021/09/03 09:16:18;;;;;;;;;;;;;;;31.04;24.93;100885.35;1667201;85;20209;-87
2021/09/03 09:18:47;;;;;;;;;;;;;;;30.26;24.87;100880.17;1667751;86;20163;-91
2021/09/03 09:21:16;;;;;;;;;;;;;;;29.41;25.65;100882.39;1676356;84;21572;-88
2021/09/03 09:23:44;;;;;;;;;;;;;;;29.71;26.22;100885.11;1699450;84;20995;-87
2021/09/03 09:26:10;;;;;;;;;;;;;;;30.40;26.33;100890.59;1699608;84;20179;-88
2021/09/03 09:28:36;;;;;;;;;;;;;;;30.74;24.89;100882.23;1699649;84;20541;-88
2021/09/03 09:31:02;;;;;;;;;;;;;;;31.08;26.22;100881.18;1699542;84;20182;-88
2021/09/03 09:36:52;;;;;;;;;;;;;;;30.35;25.88;100892.34;1699329;84;21240;-88
2021/09/03 09:39:19;;;;;;;;;;;;;;;30.44;25.67;100879.67;1642730;86;20189;-90
2021/09/03 09:41:46;;;;;;;;;;;;;;;30.43;25.72;100896.77;1642830;87;20171;-88
2021/09/03 09:44:12;;;;;;;;;;;;;;;29.87;25.36;100892.57;1642785;87;20171;-88
2021/09/03 09:46:38;;;;;;;;;;;;;;;29.35;25.98;100888.88;1642852;87;20175;-89
2021/09/03 09:49:12;;;;;;;;;;;;;;;28.90;26.15;100897.67;1640556;86;21109;-88
2021/09/03 09:51:48;;;;;;;;;;;;;;;28.48;26.54;100893.16;1641891;86;20480;-87
2021/09/03 09:54:16;;;;;;;;;;;;;;;28.19;26.58;100888.34;1643329;86;20178;-88
2021/09/03 09:56:46;;;;;;;;;;;;;;;27.93;27.33;100895.45;1615449;88;20161;-89
2021/09/03 09:59:12;;;;;;;;;;;;;;;27.78;27.62;100895.81;1615224;89;20513;-91
2021/09/03 10:01:40;;;;;;;;;;;;;;;27.81;27.62;100891.50;1593836;89;21109;-88
2021/09/03 10:04:08;;;;;;;;;;;;;;;27.96;27.35;100895.30;1615047;89;20160;-91
2021/09/03 10:06:35;;;;;;;;;;;;;;;27.93;26.97;100902.38;1614918;89;20164;-89
2021/09/03 10:09:04;;;;;;;;;;;;;;;27.74;27.03;100906.59;1594693;89;20547;-89
2021/09/03 10:11:30;;;;;;;;;;;;;;;27.04;27.35;100907.03;1615026;88;20518;-91
2021/09/03 10:13:56;;;;;;;;;;;;;;;26.67;28.12;100907.43;1614969;89;21081;-92
2021/09/03 10:16:22;;;;;;;;;;;;;;;26.02;27.64;100915.37;1615023;89;20149;-90
2021/09/03 10:18:50;;;;;;;;;;;;;;;25.44;28.28;100910.88;1614870;89;20219;-91
2021/09/03 10:21:15;;;;;;;;;;;;;;;25.12;29.25;100913.54;1614942;88;20212;-90
2021/09/03 10:23:53;;;;;;;;;;;;;;;25.14;29.91;100914.00;1614988;88;20144;-91
2021/09/03 10:26:22;;;;;;;;;;;;;;;25.08;29.92;100907.90;1615386;89;21181;-90
2021/09/03 10:28:47;;;;;;;;;;;;;;;24.43;29.63;100905.77;1590330;89;20190;-89
2021/09/03 10:31:19;;;;;;;;;;;;;;;23.94;30.75;100905.73;1590560;88;20179;-89
2021/09/03 10:33:41;;;;;;;;;;;;;;;23.84;31.47;100911.12;1584865;89;20159;-89
2021/09/03 10:36:06;;;;;;;;;;;;;;;23.80;30.97;100901.95;1608518;88;20187;-91
2021/09/03 10:38:34;;;;;;;;;;;;;;;24.12;31.60;100914.58;1628770;88;21155;-89
2021/09/03 10:41:02;;;;;;;;;;;;;;;24.32;31.46;100916.98;1628649;88;20191;-89
2021/09/03 10:43:53;;;;;;;;;;;;;;;24.15;30.84;100913.88;1628611;88;20160;-89
2021/09/03 10:46:19;;;;;;;;;;;;;;;23.82;31.45;100920.86;1628522;88;20232;-88
2021/09/03 10:48:51;;;;;;;;;;;;;;;23.55;32.08;100918.94;1628737;86;20199;-89
2021/09/03 10:51:34;;;;;;;;;;;;;;;23.44;32.63;100915.00;1627406;88;21081;-89
2021/09/03 10:54:19;;;;;;;;;;;;;;;23.50;33.21;100922.72;1590664;87;20146;-90
2021/09/03 10:56:56;;;;;;;;;;;;;;;23.91;33.10;100907.22;1648646;87;20197;-90
2021/09/03 10:59:22;;;;;;;;;;;;;;;24.03;32.67;100907.25;1656073;86;20472;-91
2021/09/03 11:01:52;;;;;;;;;;;;;;;23.96;32.18;100913.88;1643507;86;20192;-90
2021/09/03 11:07:44;;;;;;;;;;;;;;;23.42;31.25;100911.23;1655639;86;20453;-91
2021/09/03 11:10:20;;;;;;;;;;;;;;;22.94;32.66;100919.45;1656091;86;20169;-89
2021/09/03 11:12:51;;;;;;;;;;;;;;;22.78;33.26;100916.52;1656004;86;20170;-89
2021/09/03 11:15:18;;;;;;;;;;;;;;;22.81;33.39;100913.09;1585358;88;20218;-87
2021/09/03 11:17:44;;;;;;;;;;;;;;;23.07;33.11;100912.92;1585311;90;21312;-88
2021/09/03 11:20:10;;;;;;;;;;;;;;;23.38;31.33;100905.36;1585311;89;20164;-88
2021/09/03 11:22:38;;;;;;;;;;;;;;;23.44;31.67;100906.20;1585087;89;20183;-90
2021/09/03 11:25:07;;;;;;;;;;;;;;;23.34;32.14;100905.23;1590937;89;20152;-89
2021/09/03 11:27:34;;;;;;;;;;;;;;;23.20;32.50;100901.97;1610426;89;20647;-91
2021/09/03 11:30:03;;;;;;;;;;;;;;;22.85;31.61;100899.48;1610522;89;21166;-91
2021/09/03 11:32:32;;;;;;;;;;;;;;;22.67;32.22;100898.80;1610677;89;20435;-89
2021/09/03 11:35:08;;;;;;;;;;;;;;;22.80;32.54;100889.52;1610303;89;20195;-89
2021/09/03 11:37:53;;;;;;;;;;;;;;;23.07;33.36;100886.80;1610679;87;20196;-92
2021/09/03 11:40:28;;;;;;;;;;;;;;;23.16;32.70;100881.80;1610660;88;20517;-88
2021/09/03 11:42:59;;;;;;;;;;;;;;;23.24;32.45;100887.22;1610406;89;21150;-90
2021/09/03 11:45:30;;;;;;;;;;;;;;;23.49;32.34;100883.95;1610482;89;20176;-91
2021/09/03 11:48:01;;;;;;;;;;;;;;;23.89;31.96;100869.61;1610602;89;20203;-89
2021/09/03 11:50:43;;;;;;;;;;;;;;;24.10;32.14;100875.59;1610486;89;20308;-91
2021/09/03 11:53:14;;;;;;;;;;;;;;;24.07;31.07;100882.58;1617069;88;20486;-89
2021/09/03 11:55:42;;;;;;;;;;;;;;;24.26;31.17;100874.52;1618080;86;20195;-92
2021/09/03 11:58:11;;;;;;;;;;;;;;;24.66;31.49;100864.73;1631972;87;20198;-89
2021/09/03 12:01:00;;;;;;;;;;;;;;;24.99;30.15;100860.95;1636593;86;20222;-89
2021/09/03 12:03:34;;;;;;;;;;;;;;;25.28;30.90;100859.81;1636664;86;20160;-90
2021/09/03 12:06:02;;;;;;;;;;;;;;;25.56;30.78;100863.87;1636596;87;20156;-91
2021/09/03 12:08:35;;;;;;;;;;;;;;;25.50;28.99;100861.98;1636576;87;21130;-91
2021/09/03 12:11:06;;;;;;;;;;;;;;;25.12;29.68;100861.13;1631847;87;20189;-91
2021/09/03 12:13:52;;;;;;;;;;;;;;;24.79;30.37;100855.27;1610391;87;20146;-91
2021/09/03 12:16:21;;;;;;;;;;;;;;;24.62;29.27;100844.52;1567137;90;20214;-91
2021/09/03 12:18:49;;;;;;;;;;;;;;;24.34;30.67;100845.25;1567154;90;20198;-92
2021/09/03 12:21:21;;;;;;;;;;;;;;;24.51;31.15;100852.48;1567175;91;21134;-90
2021/09/03 12:24:01;;;;;;;;;;;;;;;24.44;30.33;100852.26;1567206;91;20196;-90
2021/09/03 12:26:49;;;;;;;;;;;;;;;24.10;30.21;100860.44;1567211;90;20161;-89
2021/09/03 12:29:20;;;;;;;;;;;;;;;23.66;30.67;100861.53;1588741;89;20160;-92
2021/09/03 12:31:57;;;;;;;;;;;;;;;23.15;31.48;100865.88;1604185;89;20491;-90
2021/09/03 12:34:25;;;;;;;;;;;;;;;22.86;32.50;100872.25;1604693;89;21120;-89
2021/09/03 12:36:59;;;;;;;;;;;;;;;22.76;32.98;100872.06;1604363;89;20187;-90
2021/09/03 12:39:41;;;;;;;;;;;;;;;22.63;34.05;100868.45;1604382;89;20192;-91
2021/09/03 12:42:17;;;;;;;;;;;;;;;22.72;33.50;100861.52;1604423;89;20192;-90
2021/09/03 12:44:42;;;;;;;;;;;;;;;22.97;33.21;100856.99;1603880;88;20164;-89
2021/09/03 12:47:08;;;;;;;;;;;;;;;23.30;32.81;100850.11;1604018;89;22505;-91
2021/09/03 12:49:36;;;;;;;;;;;;;;;23.71;33.89;100852.52;1619870;86;20182;-89
2021/09/03 12:52:06;;;;;;;;;;;;;;;23.92;32.06;100841.97;1674077;84;20213;-90
2021/09/03 12:54:34;;;;;;;;;;;;;;;24.17;32.34;100840.80;1637001;87;20169;-89
2021/09/03 12:57:00;;;;;;;;;;;;;;;24.52;31.58;100846.40;1615144;87;20170;-90
2021/09/03 12:59:26;;;;;;;;;;;;;;;24.56;31.15;100841.23;1637018;87;21805;-87
2021/09/03 13:01:52;;;;;;;;;;;;;;;24.37;30.76;100842.38;1648108;85;20242;-89
2021/09/03 13:04:20;;;;;;;;;;;;;;;24.32;31.40;100844.79;1657291;86;20247;-89
2021/09/03 13:06:48;;;;;;;;;;;;;;;24.14;31.07;100846.99;1657273;86;20378;-89
2021/09/03 13:09:18;;;;;;;;;;;;;;;23.74;31.10;100852.41;1656736;86;20443;-89
2021/09/03 13:11:45;;;;;;;;;;;;;;;23.42;31.54;100857.59;1647383;86;21076;-89
2021/09/03 13:14:11;;;;;;;;;;;;;;;23.17;32.52;100861.41;1647167;87;20182;-93
2021/09/03 13:16:37;;;;;;;;;;;;;;;22.98;32.88;100861.34;1647377;87;20212;-89
2021/09/03 13:19:05;;;;;;;;;;;;;;;22.83;33.02;100853.69;1647305;87;20500;-88
2021/09/03 13:21:31;;;;;;;;;;;;;;;22.71;33.88;100855.80;1647287;87;20504;-90
2021/09/03 13:23:56;;;;;;;;;;;;;;;22.48;34.19;100853.15;1647299;87;20997;-88
2021/09/03 13:26:22;;;;;;;;;;;;;;;22.42;34.30;100858.83;1647203;86;20867;-89
2021/09/03 13:28:47;;;;;;;;;;;;;;;22.37;33.85;100849.41;1647227;87;20125;-87
2021/09/03 13:31:19;;;;;;;;;;;;;;;22.31;33.86;100849.95;1647338;87;20404;-88
2021/09/03 13:33:43;;;;;;;;;;;;;;;22.18;33.72;100846.31;1647197;86;20449;-90
2021/09/03 13:36:08;;;;;;;;;;;;;;;21.82;34.06;100853.06;1647072;86;20521;-88
2021/09/03 13:38:34;;;;;;;;;;;;;;;21.68;35.11;100849.19;1647335;87;20170;-88
2021/09/03 13:41:00;;;;;;;;;;;;;;;21.68;34.83;100843.70;1647204;87;20130;-89
2021/09/03 13:43:25;;;;;;;;;;;;;;;21.64;35.15;100850.16;1647265;87;20528;-89
2021/09/03 13:45:51;;;;;;;;;;;;;;;21.59;35.59;100851.70;1647375;87;20181;-89
2021/09/03 13:48:16;;;;;;;;;;;;;;;21.55;35.56;100846.07;1647388;87;21939;-87
2021/09/03 13:50:42;;;;;;;;;;;;;;;21.60;36.09;100848.64;1647176;87;20126;-88
2021/09/03 13:53:08;;;;;;;;;;;;;;;21.78;36.60;100851.55;1647325;87;20205;-89
2021/09/03 13:55:34;;;;;;;;;;;;;;;21.92;36.11;100854.66;1647333;87;20657;-88
2021/09/03 13:58:00;;;;;;;;;;;;;;;21.86;35.82;100855.98;1678300;84;20153;-90
2021/09/03 14:00:26;;;;;;;;;;;;;;;21.72;36.99;100854.81;1700162;84;20993;-91
2021/09/03 14:02:52;;;;;;;;;;;;;;;21.51;37.54;100856.09;1700075;84;20138;-91
2021/09/03 14:05:18;;;;;;;;;;;;;;;21.27;37.74;100859.36;1700208;84;20455;-89
2021/09/03 14:07:43;;;;;;;;;;;;;;;21.03;38.32;100852.45;1716893;82;20313;-89
2021/09/03 14:10:10;;;;;;;;;;;;;;;20.93;39.17;100854.14;1734258;82;20111;-89
2021/09/03 14:12:39;;;;;;;;;;;;;;;20.82;39.50;100846.83;1737547;82;21812;-89
2021/09/03 14:15:06;;;;;;;;;;;;;;;20.78;39.72;100855.43;1737648;82;20143;-88
2021/09/03 14:17:31;;;;;;;;;;;;;;;20.77;40.07;100847.55;1737527;82;20196;-89
2021/09/03 14:19:57;;;;;;;;;;;;;;;20.80;39.70;100844.97;1737853;82;20154;-89
2021/09/03 14:22:22;;;;;;;;;;;;;;;20.80;40.03;100846.34;1737500;82;20198;-91
2021/09/03 14:24:48;;;;;;;;;;;;;;;20.77;39.80;100840.70;1737576;82;21090;-89
2021/09/03 14:27:14;;;;;;;;;;;;;;;20.57;40.25;100845.68;1737663;82;20437;-90
2021/09/03 14:29:39;;;;;;;;;;;;;;;20.47;40.19;100844.61;1737608;82;20249;-88
2021/09/03 14:32:06;;;;;;;;;;;;;;;20.45;40.67;100840.57;1737712;82;20301;-90
2021/09/03 14:34:31;;;;;;;;;;;;;;;20.53;40.53;100837.88;1737619;82;20211;-89
2021/09/03 14:36:57;;;;;;;;;;;;;;;20.62;40.31;100841.98;1737605;82;21775;-90
2021/09/03 14:39:23;;;;;;;;;;;;;;;20.72;40.58;100840.29;1737452;82;20167;-89
2021/09/03 14:41:49;;;;;;;;;;;;;;;20.74;40.06;100829.83;1737025;82;20127;-88
2021/09/03 14:44:24;;;;;;;;;;;;;;;20.70;40.05;100832.15;1734020;82;20143;-90
2021/09/03 14:46:50;;;;;;;;;;;;;;;20.57;39.92;100839.41;1737706;81;20487;-88
2021/09/03 14:49:16;;;;;;;;;;;;;;;20.47;40.53;100831.45;1737590;82;21136;-89
2021/09/03 14:51:42;;;;;;;;;;;;;;;20.47;40.62;100832.83;1737207;81;20442;-90
2021/09/03 14:54:08;;;;;;;;;;;;;;;20.52;40.84;100831.30;1737537;82;20252;-88
2021/09/03 14:56:36;;;;;;;;;;;;;;;20.65;41.28;100835.88;1737681;81;20233;-88
2021/09/03 14:59:01;;;;;;;;;;;;;;;20.74;41.58;100827.09;1737416;81;20147;-89
2021/09/03 15:01:27;;;;;;;;;;;;;;;20.74;40.29;100819.44;1737659;82;21871;-88
2021/09/03 15:03:53;;;;;;;;;;;;;;;20.69;41.26;100820.39;1737592;81;20221;-90
2021/09/03 15:06:19;;;;;;;;;;;;;;;20.59;41.95;100821.53;1737602;82;20134;-89
2021/09/03 15:08:44;;;;;;;;;;;;;;;20.37;41.14;100818.89;1737531;81;20756;-90
2021/09/03 15:11:10;;;;;;;;;;;;;;;20.19;41.76;100822.97;1737646;82;20170;-88
2021/09/03 15:13:35;;;;;;;;;;;;;;;20.01;41.75;100826.80;1737573;82;21907;-88
2021/09/03 15:16:04;;;;;;;;;;;;;;;19.81;41.87;100820.53;1736233;81;20115;-88
2021/09/03 15:18:30;;;;;;;;;;;;;;;19.67;42.51;100825.53;1737429;82;20159;-89
2021/09/03 15:20:57;;;;;;;;;;;;;;;19.57;42.98;100823.63;1737294;82;20163;-91
2021/09/03 15:23:23;;;;;;;;;;;;;;;19.44;43.34;100818.47;1737414;82;20210;-89
2021/09/03 15:25:49;;;;;;;;;;;;;;;19.33;43.25;100814.42;1737663;82;21018;-89
2021/09/03 15:28:15;;;;;;;;;;;;;;;19.26;43.74;100810.18;1737503;82;20155;-89
2021/09/03 15:34:58;;;;;;;2.70;1.10;;;;;;;19.07;45.93;100802.77;1797902;79;22767;-85
2021/09/03 15:37:24;;;;;;;5.67;1.20;;;;;;;19.03;45.44;100797.66;1757833;81;20857;-84
2021/09/03 15:39:49;;;;;;;4.37;1.40;;;;;;;18.89;45.51;100797.75;1757942;81;21169;-85
2021/09/03 15:42:15;;;;;;;3.42;1.62;;;;;;;18.77;46.44;100798.88;1757997;81;21038;-84
2021/09/03 15:44:41;;;;;;;6.65;1.95;;;;;;;18.65;46.76;100794.47;1758252;81;20959;-85
2021/09/03 15:47:07;;;;;;;5.28;1.87;;;;;;;18.52;47.64;100794.77;1758027;81;20813;-85
2021/09/03 15:49:33;;;;;;;7.17;2.30;;;;;;;18.41;48.95;100799.65;1748715;80;21589;-84
2021/09/03 15:51:59;;;;;;;12.63;5.42;;;;;;;18.30;51.22;100798.28;1727723;83;21131;-84
2021/09/03 15:54:24;;;;;;;15.60;6.87;;;;;;;18.11;52.77;100801.94;1727588;82;20952;-83
2021/09/03 15:56:50;;;;;;;17.73;5.83;;;;;;;17.97;52.44;100803.06;1727804;82;21701;-84
2021/09/03 15:59:16;;;;;;;10.58;4.03;;;;;;;17.84;53.03;100802.77;1727785;83;20848;-83
2021/09/03 16:01:42;;;;;;;12.47;3.65;;;;;;;17.72;52.60;100799.72;1727809;83;20900;-84
2021/09/03 16:04:08;;;;;;;7.33;2.92;;;;;;;17.63;53.45;100800.97;1727712;82;21163;-86
2021/09/03 16:06:34;;;;;;;7.80;2.33;;;;;;;17.57;54.91;100802.73;1727722;82;21034;-84
2021/09/03 16:09:00;;;;;;;5.53;1.55;;;;;;;17.47;54.69;100798.27;1727521;83;21049;-84
2021/09/03 16:11:26;;;;;;;3.30;1.30;;;;;;;17.43;54.44;100804.88;1727843;83;21027;-84
2021/09/03 16:13:52;;;;;;;5.37;1.30;;;;;;;17.27;54.93;100782.33;1727779;82;21006;-85
2021/09/03 16:16:18;;;;;;;4.72;1.30;;;;;;;17.32;54.90;100806.73;1727837;82;21054;-85
2021/09/03 16:18:44;;;;;;;4.33;1.20;;;;;;;17.21;55.75;100801.47;1727721;83;20888;-86
2021/09/03 16:21:10;;;;;;;5.10;1.50;;;;;;;17.14;56.52;100807.04;1709165;83;21518;-82
2021/09/03 16:23:36;;;;;;;4.05;1.65;;;;;;;17.07;57.03;100805.27;1727070;80;20963;-84
2021/09/03 16:26:03;;;;;;;6.20;1.85;;;;;;;16.97;58.84;100807.59;1758036;81;20991;-83
2021/09/03 16:28:29;;;;;;;5.42;1.92;;;;;;;16.85;59.70;100805.33;1757871;81;21490;-83
2021/09/03 16:30:54;;;;;;;8.00;2.15;;;;;;;16.71;62.27;100806.62;1738695;81;20841;-82
2021/09/03 16:33:20;;;;;;;4.92;2.05;;;;;;;16.59;64.59;100806.27;1754859;81;20964;-82
2021/09/03 16:35:46;;;;;;;3.50;1.80;;;;;;;16.45;69.69;100806.18;1742975;82;21019;-82
2021/09/03 16:38:12;;;;;;;5.97;1.65;;;;;;;16.30;74.43;100805.84;1744715;81;20909;-82
2021/09/03 16:40:39;;;;;;;3.12;1.50;;;;;;;16.11;77.90;100803.08;1744801;81;21589;-82
2021/09/03 16:43:04;;;;;;;4.15;1.50;;;;;;;15.80;84.00;100804.58;1744765;82;20968;-81
2021/09/03 16:45:30;;;;;;;3.95;1.35;;;;;;;15.80;84.00;100804.58;1744471;81;20984;-83
2021/09/03 16:47:56;;;;;;;3.62;1.50;;;;;;;15.66;86.81;100809.86;1744336;80;20821;-81
2021/09/03 16:50:22;;;;;;;2.92;1.30;;;;;;;15.50;88.86;100816.53;1733789;82;21606;-82
2021/09/03 16:52:48;;;;;;;7.53;1.60;;;;;;;15.36;89.41;100810.43;1744151;81;21929;-82
2021/09/03 16:55:14;;;;;;;5.78;1.40;;;;;;;15.22;90.73;100819.78;1744283;82;20967;-81
2021/09/03 16:57:40;;;;;;;3.40;1.30;;;;;;;15.13;97.74;100817.98;1743950;82;20964;-82
2021/09/03 17:00:08;;;;;;;3.27;1.45;;;;;;;15.01;99.95;100813.47;1744288;82;20888;-84
2021/09/03 17:02:34;;;;;;;3.65;1.50;;;;;;;14.88;100.00;100818.98;1744338;82;21044;-83
2021/09/03 17:05:00;;;;;;;3.42;1.40;;;;;;;14.78;100.00;100819.87;1744327;81;21938;-83
2021/09/03 17:07:27;;;;;;;3.65;1.70;;;;;;;14.68;100.00;100819.41;1744136;81;20889;-84
2021/09/03 17:09:54;;;;;;;7.05;2.17;;;;;;;14.56;100.00;100818.95;1743964;81;21016;-83
2021/09/03 17:12:20;;;;;;;7.83;1.70;;;;;;;14.42;100.00;100824.14;1744300;82;21008;-84
2021/09/03 17:14:46;;;;;;;5.17;2.08;;;;;;;14.30;100.00;100825.02;1744266;81;20874;-83
2021/09/03 17:17:13;;;;;;;4.87;2.10;;;;;;;14.19;100.00;100827.51;1744371;81;21753;-84
2021/09/03 17:19:39;;;;;;;6.50;2.17;;;;;;;14.12;100.00;100831.88;1743888;81;21476;-86
2021/09/03 17:22:05;;;;;;;4.42;2.00;;;;;;;14.05;100.00;100831.35;1743815;81;21604;-83
2021/09/03 17:24:31;;;;;;;6.72;2.08;;;;;;;13.98;100.00;100833.01;1744208;81;20881;-84
2021/09/03 17:26:57;;;;;;;7.47;2.00;;;;;;;13.88;100.00;100832.22;1733691;82;20865;-84
2021/09/03 17:29:23;;;;;;;3.80;1.82;;;;;;;13.77;100.00;100837.69;1744152;82;21075;-84
2021/09/03 17:31:49;;;;;;;4.97;1.60;;;;;;;13.67;100.00;100840.95;1744153;82;20908;-84
2021/09/03 17:34:15;;;;;;;8.00;2.15;;;;;;;13.54;100.00;100836.38;1749904;81;21204;-84
2021/09/03 17:36:40;;;;;;;4.67;1.87;;;;;;;13.43;100.00;100840.17;1757450;81;20872;-84
2021/09/03 17:39:08;;;;;;;5.97;1.90;;;;;;;13.32;100.00;100843.97;1757547;81;20983;-85
2021/09/03 17:41:34;;;;;;;13.10;2.17;;;;;;;13.21;100.00;100842.31;1757131;81;20980;-84
2021/09/03 17:44:00;;;;;;;9.33;2.12;;;;;;;13.11;100.00;100849.90;1757553;81;20959;-84
2021/09/03 17:46:27;;;;;;;7.35;2.20;;;;;;;13.03;100.00;100842.31;1740271;81;21003;-83
2021/09/03 17:48:54;;;;;;;7.42;2.70;;;;;;;12.95;100.00;100849.09;1757465;81;21027;-84
2021/09/03 17:51:21;;;;;;;8.33;2.02;;;;;;;12.85;100.00;100845.00;1740584;81;21042;-84
2021/09/03 17:53:48;;;;;;;7.60;2.67;;;;;;;12.75;100.00;100847.17;1757548;81;21152;-84
2021/09/03 17:56:15;;;;;;;7.42;2.83;;;;;;;12.67;100.00;100846.33;1757391;81;21032;-84
2021/09/03 17:58:43;;;;;;;7.92;2.33;;;;;;;12.61;100.00;100852.81;1757333;81;21016;-83
2021/09/03 18:01:09;;;;;;;5.75;2.22;;;;;;;12.54;100.00;100850.37;1757421;81;21023;-84
2021/09/03 18:03:35;;;;;;;7.90;2.58;;;;;;;12.49;100.00;100847.64;1757604;81;20988;-84
2021/09/03 18:06:06;;;;;;;7.95;2.50;;;;;;;12.44;100.00;100848.97;1757621;81;21959;-83
2021/09/03 18:08:33;;;;;;;9.20;2.12;;;;;;;12.38;100.00;100850.87;1757358;81;21000;-84
2021/09/03 18:10:59;;;;;;;12.43;2.80;;;;;;;12.34;100.00;100852.47;1757224;81;21512;-84
2021/09/03 18:13:26;;;;;;;10.05;2.75;;;;;;;12.35;100.00;100851.92;1757459;81;21098;-84
2021/09/03 18:15:52;;;;;;;7.33;2.72;;;;;;;12.30;100.00;100853.27;1757582;81;21011;-84
2021/09/03 18:18:18;;;;;;;13.03;2.60;;;;;;;12.25;100.00;100841.35;1704324;84;21157;-83
2021/09/03 18:20:44;;;;;;;7.37;2.55;;;;;;;12.19;100.00;100849.17;1705806;84;21067;-83
2021/09/03 18:23:10;;;;;;;7.08;2.40;;;;;;;12.17;100.00;100845.09;1705717;84;21050;-84
2021/09/03 18:25:37;;;;;;;7.47;2.90;;;;;;;12.14;100.00;100841.03;1706102;84;21021;-84
2021/09/03 18:28:03;;;;;;;5.37;2.72;;;;;;;12.10;100.00;100845.35;1705803;84;21058;-84
2021/09/03 18:30:30;;;;;;;9.05;3.35;;;;;;;12.10;100.00;100833.73;1705701;84;21204;-84
2021/09/03 18:32:56;;;;;;;10.28;3.52;;;;;;;12.11;100.00;100836.16;1705637;84;21118;-84
2021/09/03 18:35:23;;;;;;;11.25;3.83;;;;;;;12.12;100.00;100839.67;1701067;84;20905;-84
2021/09/03 18:37:49;;;;;;;10.65;4.30;;;;;;;12.11;100.00;100838.86;1700537;84;21017;-84
2021/09/03 18:40:15;;;;;;;16.95;3.83;;;;;;;12.10;100.00;100833.73;1700577;84;20968;-84
2021/09/03 18:42:41;;;;;;;9.00;3.17;;;;;;;12.10;100.00;100832.39;1722476;81;21132;-84
2021/09/03 18:45:08;;;;;;;9.23;3.92;;;;;;;12.11;100.00;100829.95;1752099;80;21491;-84